Time;durP1;ratioP1;P1;durP2;ratioP2;P2;SDS_P1;SDS_P2;PMS_P1;PMS_P2;Temp;Humidity;BMP_temperature;BMP_pressure;BME280_temperature;BME280_humidity;BME280_pressure;Samples;Min_cycle;Max_cycle;Signal;HPM_P1;HPM_P2
2021/10/08 04:02:56;;;;;;;12.87;11.53;;;9.70;99.90;;;;;;6218545;23;20856;-65
2021/10/08 04:05:23;;;;;;;13.10;11.97;;;9.70;99.90;;;;;;6218575;23;20378;-65
2021/10/08 04:07:50;;;;;;;12.60;11.50;;;9.70;99.90;;;;;;6218365;23;20408;-65
2021/10/08 04:10:17;;;;;;;12.73;11.53;;;9.60;99.90;;;;;;6217138;23;20470;-65
2021/10/08 04:12:43;;;;;;;12.83;11.53;;;9.70;99.90;;;;;;6188296;23;20417;-64
2021/10/08 04:15:10;;;;;;;12.57;11.50;;;9.70;99.90;;;;;;6188751;23;20413;-65
2021/10/08 04:17:37;;;;;;;12.67;11.37;;;9.60;99.90;;;;;;6188503;23;20897;-64
2021/10/08 04:20:06;;;;;;;14.13;12.60;;;9.60;99.90;;;;;;6188501;23;20413;-64
2021/10/08 04:22:33;;;;;;;18.73;12.00;;;9.60;99.90;;;;;;6199029;23;20432;-65
2021/10/08 04:25:00;;;;;;;13.73;11.67;;;9.60;99.90;;;;;;6193711;23;20439;-65
2021/10/08 04:27:28;;;;;;;13.37;12.07;;;9.60;99.90;;;;;;6191706;23;20772;-65
2021/10/08 04:29:54;;;;;;;13.40;12.20;;;9.60;99.90;;;;;;6209630;23;20405;-65
2021/10/08 04:32:21;;;;;;;9.87;8.97;;;9.60;99.90;;;;;;6193859;23;20743;-64
2021/10/08 04:34:48;;;;;;;12.93;11.83;;;9.70;99.90;;;;;;6198769;23;20413;-64
2021/10/08 04:37:16;;;;;;;10.57;9.73;;;10.20;99.90;;;;;;6201125;23;20416;-64
2021/10/08 04:39:43;;;;;;;11.97;10.97;;;10.40;99.90;;;;;;6190540;23;20908;-64
2021/10/08 04:42:09;;;;;;;12.37;11.27;;;10.50;99.90;;;;;;6187745;23;20436;-65
2021/10/08 04:44:36;;;;;;;11.40;10.40;;;10.50;99.90;;;;;;6188749;23;20412;-65
2021/10/08 04:47:03;;;;;;;11.57;10.67;;;10.70;99.90;;;;;;6188634;23;20472;-65
2021/10/08 04:49:30;;;;;;;12.03;10.80;;;10.70;99.90;;;;;;6189941;23;20751;-65
2021/10/08 04:51:57;;;;;;;11.20;10.20;;;10.60;99.90;;;;;;6191720;23;20436;-65
2021/10/08 04:54:25;;;;;;;13.53;11.63;;;10.60;99.90;;;;;;6188267;23;20412;-65
2021/10/08 04:56:52;;;;;;;11.53;10.63;;;10.50;99.90;;;;;;6188041;23;20408;-65
2021/10/08 04:59:19;;;;;;;12.83;11.53;;;10.50;99.90;;;;;;6188873;23;20408;-65
2021/10/08 05:01:45;;;;;;;12.83;11.40;;;10.40;99.90;;;;;;6188804;23;20803;-65
2021/10/08 05:04:12;;;;;;;13.00;11.63;;;10.20;99.90;;;;;;6188441;23;20412;-66
2021/10/08 05:06:39;;;;;;;13.93;11.80;;;10.10;99.90;;;;;;6187537;23;20920;-65
2021/10/08 05:09:05;;;;;;;12.60;11.40;;;10.10;99.90;;;;;;6188035;23;20799;-65
2021/10/08 05:11:33;;;;;;;14.40;12.90;;;10.00;99.90;;;;;;6187577;23;20519;-64
2021/10/08 05:14:00;;;;;;;14.57;12.67;;;9.90;99.90;;;;;;6188092;23;20695;-65
2021/10/08 05:16:27;;;;;;;13.93;12.63;;;9.90;99.90;;;;;;6188363;23;20447;-67
2021/10/08 05:18:53;;;;;;;14.87;12.33;;;9.80;99.90;;;;;;6187445;23;20413;-66
2021/10/08 05:21:20;;;;;;;15.57;14.10;;;9.80;99.90;;;;;;6189292;23;20937;-65
2021/10/08 05:23:47;;;;;;;15.20;13.80;;;9.70;99.90;;;;;;6188217;23;20416;-66
2021/10/08 05:26:14;;;;;;;15.37;13.70;;;9.70;99.90;;;;;;6190643;23;20483;-65
2021/10/08 05:28:42;;;;;;;14.20;12.83;;;9.70;99.90;;;;;;6194813;23;20448;-65
2021/10/08 05:31:09;;;;;;;14.30;12.97;;;9.60;99.90;;;;;;6188596;23;20432;-65
2021/10/08 05:33:35;;;;;;;14.83;13.50;;;9.60;99.90;;;;;;6187323;23;20412;-66
2021/10/08 05:36:02;;;;;;;18.63;13.50;;;9.60;99.90;;;;;;6187423;23;20436;-65
2021/10/08 05:38:29;;;;;;;15.40;13.70;;;9.60;99.90;;;;;;6188337;23;20412;-65
2021/10/08 05:40:55;;;;;;;18.27;13.97;;;9.60;99.90;;;;;;6187140;23;20433;-65
2021/10/08 05:43:22;;;;;;;17.03;14.00;;;9.60;99.90;;;;;;6187135;23;20412;-65
2021/10/08 05:45:50;;;;;;;14.97;13.37;;;9.60;99.90;;;;;;6187363;23;20420;-66
2021/10/08 05:48:17;;;;;;;15.60;13.10;;;9.60;99.90;;;;;;6188854;23;20412;-66
2021/10/08 05:50:44;;;;;;;15.70;13.37;;;9.60;99.90;;;;;;6187502;23;20499;-66
2021/10/08 05:53:11;;;;;;;19.43;14.53;;;9.50;99.90;;;;;;6187257;23;20594;-65
2021/10/08 05:55:38;;;;;;;16.63;13.87;;;9.60;99.90;;;;;;6198725;23;20412;-66
2021/10/08 05:58:06;;;;;;;15.53;14.13;;;9.60;99.90;;;;;;6200115;23;20409;-66
2021/10/08 06:00:33;;;;;;;15.00;13.60;;;9.60;99.90;;;;;;6188457;23;20443;-66
2021/10/08 06:03:01;;;;;;;15.90;14.40;;;9.70;99.90;;;;;;6188595;23;20397;-65
2021/10/08 06:05:29;;;;;;;15.70;14.20;;;9.70;99.90;;;;;;6187366;23;20420;-66
2021/10/08 06:07:55;;;;;;;16.90;14.60;;;9.70;99.90;;;;;;6188953;23;20496;-64
2021/10/08 06:10:22;;;;;;;14.60;13.10;;;9.70;99.90;;;;;;6187130;23;20437;-64
2021/10/08 06:12:49;;;;;;;14.93;13.50;;;9.80;99.90;;;;;;6187469;23;20417;-65
2021/10/08 06:15:15;;;;;;;15.90;13.93;;;9.80;99.90;;;;;;6189449;23;20413;-64
2021/10/08 06:17:42;;;;;;;15.30;13.77;;;9.90;99.90;;;;;;6188347;23;20897;-66
2021/10/08 06:20:12;;;;;;;18.20;13.80;;;10.00;99.90;;;;;;6188062;23;20416;-65
2021/10/08 06:22:40;;;;;;;15.70;14.07;;;10.00;99.90;;;;;;6187574;23;20413;-65
2021/10/08 06:25:08;;;;;;;18.13;14.00;;;10.10;99.90;;;;;;6188226;23;20789;-65
2021/10/08 06:27:35;;;;;;;17.03;14.00;;;10.20;99.90;;;;;;6188660;23;20420;-65
2021/10/08 06:30:02;;;;;;;16.10;14.40;;;10.20;99.90;;;;;;6192939;23;20443;-65
2021/10/08 06:32:28;;;;;;;15.90;14.07;;;10.30;99.90;;;;;;6192061;23;20806;-65
2021/10/08 06:34:55;;;;;;;15.73;14.13;;;10.40;99.90;;;;;;6190023;23;20412;-64
2021/10/08 06:37:23;;;;;;;13.77;12.50;;;10.70;99.90;;;;;;6189139;23;20413;-64
2021/10/08 06:39:50;;;;;;;15.10;12.87;;;11.30;99.90;;;;;;6188744;23;20409;-65
2021/10/08 06:42:23;;;;;;;10.93;10.03;;;12.10;99.90;;;;;;6188014;23;20439;-66
2021/10/08 06:44:50;;;;;;;10.43;9.37;;;13.00;99.90;;;;;;6187933;23;20404;-65
2021/10/08 06:47:17;;;;;;;13.37;10.47;;;13.70;99.90;;;;;;6187900;23;20412;-65
2021/10/08 06:49:44;;;;;;;10.70;9.77;;;14.20;99.90;;;;;;6187842;23;20439;-66
2021/10/08 06:52:10;;;;;;;11.03;9.80;;;15.00;99.90;;;;;;6187562;23;20436;-66
2021/10/08 06:54:38;;;;;;;11.10;10.10;;;15.80;99.90;;;;;;6187686;23;20419;-65
2021/10/08 06:57:05;;;;;;;11.40;10.33;;;16.40;99.90;;;;;;6187498;23;20413;-65
2021/10/08 06:59:32;;;;;;;12.00;10.60;;;16.30;99.90;;;;;;6187860;23;20413;-66
2021/10/08 07:01:59;;;;;;;11.13;10.27;;;16.60;99.90;;;;;;6188115;23;20786;-66
2021/10/08 07:04:26;;;;;;;10.93;9.97;;;17.10;99.90;;;;;;6188624;23;20419;-67
2021/10/08 07:06:53;;;;;;;10.90;9.80;;;17.90;99.90;;;;;;6189394;23;20413;-66
2021/10/08 07:09:20;;;;;;;11.33;10.23;;;18.30;99.90;;;;;;6190574;23;20459;-66
2021/10/08 07:11:48;;;;;;;10.30;9.30;;;18.60;99.90;;;;;;6190351;23;20432;-66
2021/10/08 07:14:14;;;;;;;10.47;9.37;;;19.20;99.90;;;;;;6189678;23;20417;-66
2021/10/08 07:16:41;;;;;;;9.50;8.77;;;19.70;99.90;;;;;;6190044;23;20420;-66
2021/10/08 07:19:11;;;;;;;20.20;9.30;;;20.20;99.90;;;;;;6189800;23;20419;-66
2021/10/08 07:21:39;;;;;;;12.83;9.70;;;20.40;99.90;;;;;;6188506;23;20433;-66
2021/10/08 07:24:07;;;;;;;9.73;8.97;;;20.80;99.90;;;;;;6187771;23;20456;-66
2021/10/08 07:26:34;;;;;;;9.60;8.90;;;20.90;99.90;;;;;;6187473;23;20420;-66
2021/10/08 07:29:02;;;;;;;10.00;9.10;;;21.50;99.90;;;;;;6193948;23;20742;-66
2021/10/08 07:31:29;;;;;;;9.23;8.63;;;21.80;99.60;;;;;;6193023;23;20432;-66
2021/10/08 07:33:56;;;;;;;10.00;9.13;;;21.60;99.20;;;;;;6189745;23;20418;-66
2021/10/08 07:36:23;;;;;;;9.27;8.57;;;21.30;99.00;;;;;;6189481;23;20409;-65
2021/10/08 07:38:50;;;;;;;9.57;8.90;;;21.80;98.70;;;;;;6190070;23;20400;-65
2021/10/08 07:41:17;;;;;;;9.77;9.00;;;21.50;97.70;;;;;;6190132;23;20428;-66
2021/10/08 07:43:44;;;;;;;9.83;9.07;;;22.10;98.00;;;;;;6197755;23;20416;-66
2021/10/08 07:46:12;;;;;;;9.27;8.57;;;22.00;97.30;;;;;;6204136;23;20419;-67
2021/10/08 07:48:40;;;;;;;15.00;9.37;;;22.60;96.30;;;;;;6205068;23;20409;-66
2021/10/08 07:51:07;;;;;;;10.10;9.20;;;22.20;95.80;;;;;;6205609;23;20440;-66
2021/10/08 07:53:34;;;;;;;9.67;8.97;;;21.70;96.80;;;;;;6192063;23;20416;-66
2021/10/08 07:56:01;;;;;;;10.03;9.30;;;21.80;97.20;;;;;;6190443;23;20435;-66
2021/10/08 07:58:28;;;;;;;8.73;8.03;;;22.50;96.60;;;;;;6188872;23;20412;-66
2021/10/08 08:00:56;;;;;;;9.70;8.87;;;22.60;95.80;;;;;;6188747;23;20443;-66
2021/10/08 08:03:24;;;;;;;9.27;8.47;;;22.50;95.90;;;;;;6189108;23;20413;-66
2021/10/08 08:05:51;;;;;;;8.90;8.10;;;23.30;94.10;;;;;;6189340;23;20712;-66
2021/10/08 08:08:18;;;;;;;8.93;8.27;;;24.00;92.70;;;;;;6189383;23;20416;-65
2021/10/08 08:10:46;;;;;;;9.23;8.50;;;24.60;91.60;;;;;;6188037;23;20451;-65
2021/10/08 08:13:13;;;;;;;9.40;8.70;;;24.40;91.00;;;;;;6189490;23;20740;-65
2021/10/08 08:15:41;;;;;;;8.50;7.60;;;23.70;91.70;;;;;;6188342;23;20717;-66
2021/10/08 08:18:07;;;;;;;8.33;7.70;;;24.70;90.70;;;;;;6201381;23;20413;-66
2021/10/08 08:20:36;;;;;;;8.40;7.73;;;24.70;90.10;;;;;;6199723;23;20425;-65
2021/10/08 08:23:02;;;;;;;8.63;7.90;;;25.00;89.10;;;;;;6189686;23;20419;-65
2021/10/08 08:25:29;;;;;;;8.20;7.50;;;25.20;88.30;;;;;;6189627;23;20417;-66
2021/10/08 08:27:56;;;;;;;8.50;7.90;;;25.10;87.50;;;;;;6192015;23;20419;-66
2021/10/08 08:30:22;;;;;;;8.57;7.97;;;25.80;89.00;;;;;;6190637;23;20963;-65
2021/10/08 08:32:49;;;;;;;9.47;8.57;;;25.60;84.40;;;;;;6191754;23;20409;-66
2021/10/08 08:35:16;;;;;;;7.97;7.27;;;25.10;82.10;;;;;;6193120;23;20413;-66
2021/10/08 08:37:44;;;;;;;9.43;8.30;;;24.30;85.40;;;;;;6190717;23;20677;-65
2021/10/08 08:40:11;;;;;;;8.50;7.90;;;24.30;86.70;;;;;;6191952;23;20397;-66
2021/10/08 08:42:38;;;;;;;10.00;9.20;;;23.90;88.60;;;;;;6191157;23;20409;-66
2021/10/08 08:45:06;;;;;;;9.07;8.37;;;23.70;88.60;;;;;;6190930;23;20412;-66
2021/10/08 08:47:34;;;;;;;9.70;9.00;;;22.90;90.40;;;;;;6189696;23;20415;-65
2021/10/08 08:50:01;;;;;;;9.40;8.70;;;22.90;90.40;;;;;;6190164;23;20432;-66
2021/10/08 08:52:28;;;;;;;10.13;9.27;;;22.40;90.80;;;;;;6189915;23;20475;-65
2021/10/08 08:54:57;;;;;;;10.47;9.57;;;21.70;92.20;;;;;;6189152;23;20491;-65
2021/10/08 08:57:23;;;;;;;10.60;9.80;;;20.40;94.00;;;;;;6188990;23;20401;-66
2021/10/08 09:00:01;;;;;;;11.77;10.37;;;20.10;96.00;;;;;;6189260;23;20408;-66
2021/10/08 09:02:30;;;;;;;10.23;9.50;;;19.40;97.10;;;;;;6191344;23;20447;-66
2021/10/08 09:04:57;;;;;;;17.80;9.73;;;19.20;98.70;;;;;;6190885;23;20417;-65
2021/10/08 09:07:30;;;;;;;11.40;10.50;;;18.60;99.50;;;;;;6189382;23;20419;-65
2021/10/08 09:10:10;;;;;;;11.03;10.03;;;18.30;99.90;;;;;;6188705;23;20439;-66
2021/10/08 09:12:38;;;;;;;12.20;11.20;;;17.80;99.90;;;;;;6188102;23;20439;-66
2021/10/08 09:15:06;;;;;;;11.70;10.90;;;17.50;99.90;;;;;;6187957;23;20436;-66
2021/10/08 09:17:32;;;;;;;12.07;10.87;;;17.20;99.90;;;;;;6188239;23;20794;-66
2021/10/08 09:20:01;;;;;;;11.17;10.17;;;17.20;99.90;;;;;;6188105;23;20415;-65
2021/10/08 09:22:32;;;;;;;12.47;11.20;;;17.00;99.90;;;;;;6188753;23;20759;-65
2021/10/08 09:25:11;;;;;;;12.70;11.47;;;16.80;99.90;;;;;;6188093;23;20397;-65
2021/10/08 09:27:39;;;;;;;11.67;10.67;;;16.80;99.90;;;;;;6190322;23;20404;-65
2021/10/08 09:30:07;;;;;;;11.13;10.20;;;16.80;99.90;;;;;;6188377;23;20437;-65
2021/10/08 09:32:41;;;;;;;12.50;11.50;;;16.80;99.90;;;;;;6188987;23;20797;-65
2021/10/08 09:35:09;;;;;;;15.30;9.73;;;16.70;99.90;;;;;;6190980;23;20401;-65
2021/10/08 09:37:37;;;;;;;11.87;10.77;;;16.70;99.90;;;;;;6194112;23;20459;-65
2021/10/08 09:40:06;;;;;;;12.97;11.80;;;16.40;99.90;;;;;;6195958;23;20411;-65
2021/10/08 09:42:36;;;;;;;10.73;9.93;;;16.30;99.90;;;;;;6191012;23;20433;-65
2021/10/08 09:45:05;;;;;;;11.60;10.30;;;16.10;99.90;;;;;;6191025;23;20744;-65
2021/10/08 09:47:31;;;;;;;12.17;10.83;;;16.10;99.90;;;;;;6190469;23;20894;-65
2021/10/08 09:50:09;;;;;;;11.47;10.37;;;16.30;99.90;;;;;;6189199;23;20432;-65
2021/10/08 09:52:36;;;;;;;12.20;11.20;;;16.30;99.90;;;;;;6189302;23;20432;-65
2021/10/08 09:55:06;;;;;;;10.83;9.70;;;16.40;99.90;;;;;;6188725;23;20927;-65
2021/10/08 09:58:02;;;;;;;11.77;10.67;;;16.50;99.90;;;;;;6189772;23;20916;-66
2021/10/08 10:00:46;;;;;;;11.13;10.13;;;16.50;99.90;;;;;;6119673;23;20420;-65
2021/10/08 10:03:15;;;;;;;11.70;10.60;;;16.50;99.90;;;;;;6190571;23;20397;-65
2021/10/08 10:05:43;;;;;;;11.67;10.67;;;16.40;99.90;;;;;;6188319;23;20496;-65
2021/10/08 10:08:11;;;;;;;15.80;9.90;;;16.00;99.90;;;;;;6187680;23;20420;-65
2021/10/08 10:10:38;;;;;;;10.80;9.90;;;16.00;99.90;;;;;;6193476;23;20496;-65
2021/10/08 10:13:07;;;;;;;11.07;10.07;;;16.00;99.90;;;;;;6191598;23;20916;-65
2021/10/08 10:15:36;;;;;;;10.83;9.90;;;16.00;99.90;;;;;;6201185;23;20423;-65
2021/10/08 10:18:05;;;;;;;11.87;10.67;;;16.10;99.90;;;;;;6200956;23;20412;-65
2021/10/08 10:20:35;;;;;;;11.60;10.60;;;16.10;99.90;;;;;;6202458;23;20405;-66
2021/10/08 10:23:02;;;;;;;11.33;9.90;;;16.10;99.90;;;;;;6201762;23;20420;-65
2021/10/08 10:25:29;;;;;;;11.43;10.30;;;16.20;99.90;;;;;;6202001;23;20718;-65
2021/10/08 10:27:56;;;;;;;13.73;10.60;;;16.10;99.90;;;;;;6200625;23;20890;-65
2021/10/08 10:30:23;;;;;;;10.97;9.40;;;16.20;99.90;;;;;;6203217;23;20500;-66
2021/10/08 10:32:51;;;;;;;11.87;10.83;;;16.30;99.90;;;;;;6201653;23;20408;-66
2021/10/08 10:35:43;;;;;;;14.10;11.00;;;16.40;99.90;;;;;;6202421;23;20396;-66
2021/10/08 10:38:33;;;;;;;10.17;9.37;;;16.30;99.90;;;;;;6205406;23;20401;-65
2021/10/08 10:41:26;;;;;;;13.13;9.97;;;16.40;99.90;;;;;;6191833;23;20436;-65
2021/10/08 10:44:13;;;;;;;12.93;10.70;;;16.50;99.90;;;;;;6190449;23;20396;-65
2021/10/08 10:46:52;;;;;;;12.17;9.83;;;16.50;99.90;;;;;;6190532;23;20392;-65
2021/10/08 10:49:34;;;;;;;11.00;9.90;;;16.60;99.90;;;;;;6189072;23;20417;-65
2021/10/08 10:52:15;;;;;;;10.60;9.60;;;16.60;99.90;;;;;;6188897;23;20444;-65
2021/10/08 10:55:08;;;;;;;12.13;10.13;;;16.80;99.90;;;;;;6189046;23;20397;-65
2021/10/08 10:57:54;;;;;;;10.87;9.90;;;17.00;99.90;;;;;;6188812;23;20397;-64
2021/10/08 11:00:32;;;;;;;11.23;10.10;;;17.00;99.90;;;;;;6187692;23;20463;-65
2021/10/08 11:03:08;;;;;;;11.30;10.20;;;17.00;99.90;;;;;;6188253;23;20433;-65
2021/10/08 11:05:38;;;;;;;11.07;10.27;;;17.20;99.90;;;;;;6187584;23;20404;-65
2021/10/08 11:08:08;;;;;;;10.30;9.50;;;17.30;99.90;;;;;;6188302;23;20906;-65
2021/10/08 11:10:37;;;;;;;10.40;9.40;;;17.60;99.90;;;;;;6187825;23;20441;-65
2021/10/08 11:13:29;;;;;;;11.80;10.60;;;17.70;99.90;;;;;;6188205;23;20421;-65
2021/10/08 11:15:58;;;;;;;10.87;9.97;;;17.60;99.90;;;;;;6158779;23;20440;-65
2021/10/08 11:18:36;;;;;;;11.00;10.10;;;17.60;99.90;;;;;;6188007;23;20894;-65
2021/10/08 11:21:03;;;;;;;10.67;9.67;;;17.70;99.90;;;;;;6188734;23;20424;-65
2021/10/08 11:23:36;;;;;;;10.47;9.37;;;17.70;99.90;;;;;;6188938;23;20923;-65
2021/10/08 11:26:05;;;;;;;10.57;9.57;;;17.80;99.90;;;;;;6194004;23;20400;-65
2021/10/08 11:28:34;;;;;;;10.57;9.57;;;17.90;99.90;;;;;;6223264;23;20422;-66
2021/10/08 11:31:02;;;;;;;11.27;10.27;;;17.90;99.90;;;;;;6222874;23;20442;-66
2021/10/08 11:33:43;;;;;;;11.77;10.67;;;18.00;99.90;;;;;;6207720;23;20409;-65
2021/10/08 11:36:22;;;;;;;10.97;9.97;;;17.90;99.90;;;;;;6204682;23;20455;-65
2021/10/08 11:39:06;;;;;;;12.60;10.10;;;17.90;99.90;;;;;;6206828;23;20389;-65
2021/10/08 11:41:33;;;;;;;11.93;10.83;;;18.00;99.90;;;;;;6207012;23;20431;-66
2021/10/08 11:44:15;;;;;;;11.33;10.27;;;18.00;99.90;;;;;;6206861;23;20411;-65
2021/10/08 11:46:53;;;;;;;10.30;9.40;;;18.20;99.90;;;;;;6207874;23;20408;-65
2021/10/08 11:52:01;;;;;;;10.93;9.90;;;17.90;99.90;;;;;;6188481;23;20436;-65
2021/10/08 11:54:29;;;;;;;11.70;10.77;;;18.10;99.90;;;;;;6191866;23;20413;-65
2021/10/08 11:57:00;;;;;;;12.73;10.07;;;18.10;99.90;;;;;;6191590;23;20416;-65
2021/10/08 11:59:27;;;;;;;12.63;11.03;;;18.00;99.90;;;;;;6192585;23;20413;-64
2021/10/08 12:02:08;;;;;;;10.80;9.87;;;18.00;99.90;;;;;;6192819;23;20437;-64
2021/10/08 12:04:35;;;;;;;12.20;11.17;;;17.90;99.90;;;;;;6192352;23;20863;-64
2021/10/08 12:07:07;;;;;;;9.60;8.83;;;18.10;99.90;;;;;;6201940;23;20444;-64
2021/10/08 12:09:35;;;;;;;12.17;10.73;;;18.30;99.90;;;;;;6203327;23;20452;-65
2021/10/08 12:12:14;;;;;;;12.10;10.90;;;18.40;99.90;;;;;;6194516;23;20441;-64
2021/10/08 12:14:45;;;;;;;12.73;11.73;;;18.20;99.90;;;;;;6192384;23;20727;-65
2021/10/08 12:17:12;;;;;;;12.30;11.10;;;18.30;99.90;;;;;;6202674;23;20413;-65
2021/10/08 12:19:39;;;;;;;12.63;11.53;;;18.20;99.90;;;;;;6201959;23;20416;-65
2021/10/08 12:22:06;;;;;;;11.97;10.97;;;18.20;99.90;;;;;;6202162;23;20424;-66
2021/10/08 12:24:34;;;;;;;11.30;10.30;;;18.20;99.90;;;;;;6205402;23;20416;-65
2021/10/08 12:27:05;;;;;;;11.80;10.60;;;18.00;99.90;;;;;;6201304;23;20412;-66
2021/10/08 12:29:40;;;;;;;11.93;10.73;;;18.00;99.90;;;;;;6206628;23;20408;-65
2021/10/08 12:32:11;;;;;;;12.40;11.30;;;18.00;99.90;;;;;;6207871;23;20442;-65
2021/10/08 12:34:40;;;;;;;12.60;11.50;;;17.80;99.90;;;;;;6210110;23;20843;-66
2021/10/08 12:37:08;;;;;;;12.83;11.63;;;17.70;99.90;;;;;;6210605;23;20401;-66
2021/10/08 12:39:39;;;;;;;12.30;11.20;;;17.70;99.90;;;;;;6200369;23;20493;-67
2021/10/08 12:42:21;;;;;;;11.80;10.80;;;18.10;99.90;;;;;;6195575;23;20460;-67
2021/10/08 12:44:51;;;;;;;12.37;11.37;;;18.40;99.90;;;;;;6190353;23;20393;-66
2021/10/08 12:47:23;;;;;;;11.73;10.73;;;18.60;99.90;;;;;;6190229;23;20431;-67
2021/10/08 12:49:51;;;;;;;13.63;11.57;;;18.60;99.90;;;;;;6191267;23;20427;-66
2021/10/08 12:52:32;;;;;;;13.90;12.13;;;18.30;99.90;;;;;;6188846;23;20440;-65
2021/10/08 12:55:05;;;;;;;13.13;11.70;;;18.30;99.90;;;;;;6188464;23;20397;-65
2021/10/08 12:57:32;;;;;;;11.70;10.60;;;18.30;99.90;;;;;;6188585;23;20420;-65
2021/10/08 12:59:59;;;;;;;12.80;11.73;;;18.20;99.90;;;;;;6188207;23;20435;-64
2021/10/08 13:02:42;;;;;;;13.57;11.10;;;18.30;99.90;;;;;;6187820;23;20437;-67
2021/10/08 13:05:09;;;;;;;16.37;12.60;;;18.40;99.90;;;;;;6188120;23;20416;-65
2021/10/08 13:07:36;;;;;;;11.97;10.90;;;18.40;99.90;;;;;;6189836;23;20405;-65
2021/10/08 13:10:13;;;;;;;12.37;11.17;;;18.60;99.90;;;;;;6188446;23;20400;-66
2021/10/08 13:12:44;;;;;;;11.83;10.73;;;18.50;99.90;;;;;;6193937;23;20463;-66
2021/10/08 13:15:12;;;;;;;10.73;9.77;;;18.60;99.90;;;;;;6193822;23;20413;-66
2021/10/08 13:17:39;;;;;;;10.73;9.83;;;18.70;99.90;;;;;;6190208;23;20419;-66
2021/10/08 13:20:08;;;;;;;10.53;9.63;;;18.70;99.90;;;;;;6188594;23;20420;-65
2021/10/08 13:22:35;;;;;;;10.63;9.73;;;18.80;99.90;;;;;;6188335;23;20429;-66
2021/10/08 13:25:02;;;;;;;11.50;10.57;;;18.90;99.90;;;;;;6187957;23;20412;-67
2021/10/08 13:27:32;;;;;;;10.87;9.80;;;18.70;99.90;;;;;;6187725;23;20417;-66
2021/10/08 13:29:59;;;;;;;10.33;9.53;;;18.60;99.90;;;;;;6195841;23;20455;-67
2021/10/08 13:32:26;;;;;;;10.73;9.93;;;18.60;99.90;;;;;;6208066;23;20492;-66
2021/10/08 13:34:53;;;;;;;11.50;10.50;;;18.60;99.90;;;;;;6204665;23;20415;-66
2021/10/08 13:37:20;;;;;;;11.87;10.87;;;18.50;99.90;;;;;;6189090;23;20413;-66
2021/10/08 13:39:47;;;;;;;10.50;9.50;;;18.30;99.90;;;;;;6192243;23;20417;-66
2021/10/08 13:42:14;;;;;;;10.87;9.90;;;18.30;99.90;;;;;;6190897;23;20436;-66
2021/10/08 13:44:42;;;;;;;10.57;9.63;;;18.40;99.90;;;;;;6188687;23;20744;-66
2021/10/08 13:47:10;;;;;;;11.77;10.77;;;18.50;99.90;;;;;;6187865;23;20398;-65
2021/10/08 13:49:37;;;;;;;11.07;10.17;;;18.40;99.90;;;;;;6187129;23;20413;-65
2021/10/08 13:52:06;;;;;;;10.87;9.97;;;18.20;99.90;;;;;;6193089;23;20441;-66
2021/10/08 13:54:33;;;;;;;11.07;10.10;;;18.20;99.90;;;;;;6192235;23;20413;-66
2021/10/08 13:57:00;;;;;;;10.33;9.53;;;18.20;99.90;;;;;;6191471;23;20420;-66
2021/10/08 13:59:27;;;;;;;12.27;9.70;;;18.20;99.90;;;;;;6187807;23;20412;-65
2021/10/08 14:02:00;;;;;;;11.13;9.97;;;18.20;99.90;;;;;;6187210;23;20443;-65
2021/10/08 14:04:31;;;;;;;11.90;10.90;;;18.10;99.90;;;;;;6187124;23;20876;-65
2021/10/08 14:07:12;;;;;;;10.43;9.60;;;18.10;99.90;;;;;;6186971;23;20920;-66
2021/10/08 14:12:23;;;;;;;11.27;10.20;;;18.10;99.90;;;;;;6187286;23;20520;-66
2021/10/08 14:14:50;;;;;;;12.97;11.50;;;18.00;99.90;;;;;;6187343;23;20413;-66
2021/10/08 14:17:18;;;;;;;11.53;10.53;;;17.90;99.90;;;;;;6187262;23;20416;-65
2021/10/08 14:19:44;;;;;;;12.47;11.20;;;17.90;99.90;;;;;;6187033;23;20749;-65
2021/10/08 14:22:11;;;;;;;12.60;11.30;;;17.90;99.90;;;;;;6187062;23;20429;-66
2021/10/08 14:24:38;;;;;;;12.60;11.40;;;17.80;99.90;;;;;;6187490;23;20462;-65
2021/10/08 14:27:04;;;;;;;14.10;12.70;;;17.90;99.90;;;;;;6190455;23;20722;-65
2021/10/08 14:29:31;;;;;;;13.93;12.63;;;17.70;99.90;;;;;;6187185;23;20412;-65
2021/10/08 14:31:58;;;;;;;13.67;12.47;;;17.60;99.90;;;;;;6187351;23;20444;-66
2021/10/08 14:34:26;;;;;;;14.97;13.57;;;17.60;99.90;;;;;;6187092;23;20419;-65
2021/10/08 14:36:53;;;;;;;13.03;11.83;;;17.50;99.90;;;;;;6186992;23;20416;-66
2021/10/08 14:39:20;;;;;;;13.40;12.27;;;17.40;99.90;;;;;;6187004;23;20420;-65
2021/10/08 14:41:46;;;;;;;13.83;12.53;;;17.40;99.90;;;;;;6187347;23;20436;-64
2021/10/08 14:44:13;;;;;;;15.60;14.20;;;17.30;99.90;;;;;;6187257;23;20467;-65
2021/10/08 14:46:40;;;;;;;13.63;12.47;;;17.30;99.90;;;;;;6187103;23;20413;-65
2021/10/08 14:49:07;;;;;;;14.77;13.33;;;17.40;99.90;;;;;;6187435;23;20420;-64
2021/10/08 14:51:35;;;;;;;12.70;11.50;;;17.30;99.90;;;;;;6203581;23;20446;-66
2021/10/08 14:54:13;;;;;;;13.73;12.53;;;17.20;99.90;;;;;;6200861;23;20476;-66
2021/10/08 14:56:56;;;;;;;13.70;12.40;;;17.30;99.90;;;;;;6189185;23;20484;-66
2021/10/08 14:59:22;;;;;;;14.40;12.90;;;17.30;99.90;;;;;;6190264;23;20420;-66
2021/10/08 15:01:49;;;;;;;13.70;12.50;;;17.20;99.90;;;;;;6188743;23;20437;-66
2021/10/08 15:04:16;;;;;;;13.60;12.40;;;17.30;99.90;;;;;;6200815;23;20413;-66
2021/10/08 15:06:44;;;;;;;13.87;12.63;;;17.20;99.90;;;;;;6202082;23;20503;-66
2021/10/08 15:09:11;;;;;;;14.07;12.63;;;17.20;99.90;;;;;;6189577;23;20409;-69
2021/10/08 15:11:38;;;;;;;14.87;13.00;;;17.10;99.90;;;;;;6188608;23;20436;-66
2021/10/08 15:14:05;;;;;;;14.17;12.80;;;17.10;99.90;;;;;;6196521;23;20400;-66
2021/10/08 15:16:32;;;;;;;14.07;12.67;;;17.10;99.90;;;;;;6191768;23;20417;-67
2021/10/08 15:18:59;;;;;;;14.00;12.27;;;17.10;99.90;;;;;;6189738;23;20413;-67
2021/10/08 15:21:25;;;;;;;13.00;11.80;;;17.20;99.90;;;;;;6188737;23;20425;-67
2021/10/08 15:23:53;;;;;;;14.53;13.03;;;17.30;99.90;;;;;;6188820;23;20416;-67
2021/10/08 15:26:20;;;;;;;12.70;11.57;;;17.20;99.90;;;;;;6188989;23;20409;-67
2021/10/08 15:28:47;;;;;;;12.97;11.73;;;17.20;99.90;;;;;;6191745;23;20415;-67
2021/10/08 15:31:13;;;;;;;13.50;12.10;;;17.10;99.90;;;;;;6196936;23;20799;-67
2021/10/08 15:33:40;;;;;;;12.37;11.37;;;17.10;99.90;;;;;;6188349;23;20440;-67
2021/10/08 15:36:07;;;;;;;14.53;13.10;;;17.00;99.90;;;;;;6189007;23;20487;-67
2021/10/08 15:38:34;;;;;;;14.27;12.87;;;16.90;99.90;;;;;;6188300;23;20416;-67
2021/10/08 15:41:02;;;;;;;14.63;13.43;;;16.90;99.90;;;;;;6188198;23;20443;-67
2021/10/08 15:43:28;;;;;;;15.23;13.93;;;16.70;99.90;;;;;;6188834;23;20409;-67
2021/10/08 15:45:55;;;;;;;13.20;11.93;;;16.60;99.90;;;;;;6189523;23;20435;-68
2021/10/08 15:48:23;;;;;;;14.97;13.60;;;16.60;99.90;;;;;;6188873;23;20413;-67
2021/10/08 15:50:50;;;;;;;14.30;12.90;;;16.50;99.90;;;;;;6189950;23;20440;-67
2021/10/08 15:53:17;;;;;;;13.63;12.23;;;16.50;99.90;;;;;;6189586;23;20433;-66
2021/10/08 15:55:43;;;;;;;14.83;12.97;;;16.50;99.90;;;;;;6188365;23;20412;-65
2021/10/08 15:58:11;;;;;;;14.37;13.07;;;16.40;99.90;;;;;;6188201;23;20486;-66
2021/10/08 16:00:40;;;;;;;13.67;12.40;;;16.40;99.90;;;;;;6188135;23;20448;-66
2021/10/08 16:03:06;;;;;;;14.33;13.00;;;16.30;99.90;;;;;;6188200;23;20913;-65
2021/10/08 16:05:34;;;;;;;16.47;12.83;;;16.30;99.90;;;;;;6188116;23;20412;-65
2021/10/08 16:08:05;;;;;;;14.80;13.33;;;16.30;99.90;;;;;;6187818;23;20924;-65
2021/10/08 16:10:32;;;;;;;14.77;13.27;;;16.30;99.90;;;;;;6188423;23;20429;-66
2021/10/08 16:12:59;;;;;;;13.80;12.60;;;16.30;99.90;;;;;;6196720;23;20518;-66
2021/10/08 16:15:27;;;;;;;14.40;13.10;;;16.30;99.90;;;;;;6193701;23;20726;-66
2021/10/08 16:17:57;;;;;;;14.90;13.60;;;16.20;99.90;;;;;;6194068;23;20413;-66
2021/10/08 16:20:24;;;;;;;14.43;13.07;;;16.30;99.90;;;;;;6189843;23;20423;-66
2021/10/08 16:22:50;;;;;;;14.70;13.40;;;16.40;99.90;;;;;;6190281;23;20409;-65
2021/10/08 16:25:17;;;;;;;14.90;13.60;;;16.40;99.90;;;;;;6189826;23;20470;-66
2021/10/08 16:27:44;;;;;;;15.40;14.00;;;16.40;99.90;;;;;;6189290;23;20420;-66
2021/10/08 16:30:11;;;;;;;15.00;13.47;;;16.40;99.90;;;;;;6189427;23;20905;-66
2021/10/08 16:32:41;;;;;;;15.00;13.63;;;16.40;99.90;;;;;;6190733;23;20436;-66
2021/10/08 16:35:08;;;;;;;14.37;12.87;;;16.40;99.90;;;;;;6188771;23;20400;-65
2021/10/08 16:37:35;;;;;;;14.83;13.50;;;16.40;99.90;;;;;;6188244;23;20407;-64
2021/10/08 16:40:03;;;;;;;15.90;14.40;;;16.30;99.90;;;;;;6188419;23;20397;-64
2021/10/08 16:42:30;;;;;;;15.07;13.57;;;16.30;99.90;;;;;;6188320;23;20436;-64
2021/10/08 16:44:56;;;;;;;14.40;13.00;;;16.30;99.90;;;;;;6188468;23;20420;-65
2021/10/08 16:47:23;;;;;;;15.33;13.93;;;16.30;99.90;;;;;;6189781;23;20760;-65
2021/10/08 16:49:57;;;;;;;15.53;13.73;;;16.20;99.90;;;;;;6189616;23;20405;-65